Allred, Tennessee
Current Conditions -  °F | °C
As of 2:53 PM on Sunday 23 Nov 2014 (Local Time) from KCSV Reporting Station
Light Rain Light Rain  
Wind Chill: 54°   Ceiling: 1400
Heat Index: 54°   Visibility: 7mi
Dew Point: 50°   Wind: 12mph
Humidity: 86%   Direction: 120°ESE
Pressure: 29.62"   Gusts: 20mph
Location:  36.33°N, 85.19°W
Report Text: KCSV 232053Z AUTO 12010G17KT 7SM -RA SCT009 BKN014 OVC050 12/10 A2962 RMK AO2 RAB1956 SLP023 P0007 60007 T01220100 56057
Loading
Personal Weather Stations






























Interactive Weather Map New forecast layout! Learn more

10-Day Weather Forecast

Advertisements
Track Severe Weather on mobile